aviador You're here:

LFRQ Decoded Metar

QUIMPER in FRANCE
Report Time2018-07-22 16:00:00
UTC Time2018-07-22 16:24:40
Flight Rules vfr VFR
Wind240° at 10 kt
W.Decomp.*RWY 28: 8.0 kt HW 6 kt LCW
W.Rank240° ranks 6
Current wind is above 240° avg. (9.6)
Visibility9999 m
Phenomena:N/A
Clouds:N/A
Expected CloudBase > 3,200 ft AGL from Temp-Dew spread
CeilingNone
Temp24°C (ISA +10)
Dew Point16°C (61% RH)
AAT22.4°C
QNH1018 hPa
Density Alt1,499 ft
Elevation308 ft
Report Wrong Elevation
Raw Report
LFRQ 221600Z AUTO 24010KT 200V270 CAVOK 24/16 Q1018 BECMG
34006KT=

Extra information for LFRQ:More info

Metar Taf Metar & Taf Last 4 Metars F.Rules Stats Wind Profile Meteogram Temp Stats Airport Information Weather charts Add Link Nearby VenuesMetar ALERT Operation Metar Decoded Social comments